sensor_id;sensor_type;location;lat;lon;timestamp;P1;durP1;ratioP1;P2;durP2;ratioP2
49416;SDS011;35290;39.550;8.786;2023-03-14T00:02:15;10.10;;;3.63;;
49416;SDS011;35290;39.550;8.786;2023-03-14T00:04:41;12.30;;;3.50;;
49416;SDS011;35290;39.550;8.786;2023-03-14T00:07:10;11.73;;;3.90;;
49416;SDS011;35290;39.550;8.786;2023-03-14T00:09:48;14.23;;;4.05;;
49416;SDS011;35290;39.550;8.786;2023-03-14T00:12:14;7.57;;;3.25;;
49416;SDS011;35290;39.550;8.786;2023-03-14T00:14:40;14.75;;;4.05;;
49416;SDS011;35290;39.550;8.786;2023-03-14T00:17:14;10.48;;;3.55;;
49416;SDS011;35290;39.550;8.786;2023-03-14T00:19:40;10.52;;;3.60;;
49416;SDS011;35290;39.550;8.786;2023-03-14T00:22:05;9.48;;;3.20;;
49416;SDS011;35290;39.550;8.786;2023-03-14T00:24:30;10.80;;;3.60;;
49416;SDS011;35290;39.550;8.786;2023-03-14T00:26:56;11.68;;;3.90;;
49416;SDS011;35290;39.550;8.786;2023-03-14T00:29:21;16.60;;;4.55;;
49416;SDS011;35290;39.550;8.786;2023-03-14T00:31:47;12.35;;;3.65;;
49416;SDS011;35290;39.550;8.786;2023-03-14T00:34:12;11.05;;;3.20;;
49416;SDS011;35290;39.550;8.786;2023-03-14T00:36:38;9.05;;;3.25;;
49416;SDS011;35290;39.550;8.786;2023-03-14T00:39:03;8.93;;;2.63;;
49416;SDS011;35290;39.550;8.786;2023-03-14T00:41:29;10.02;;;2.75;;
49416;SDS011;35290;39.550;8.786;2023-03-14T00:43:54;8.15;;;2.90;;
49416;SDS011;35290;39.550;8.786;2023-03-14T00:46:20;8.60;;;2.67;;
49416;SDS011;35290;39.550;8.786;2023-03-14T00:48:45;10.35;;;2.55;;
49416;SDS011;35290;39.550;8.786;2023-03-14T00:51:11;7.65;;;2.47;;
49416;SDS011;35290;39.550;8.786;2023-03-14T00:53:39;8.65;;;2.60;;
49416;SDS011;35290;39.550;8.786;2023-03-14T00:56:05;7.85;;;2.85;;
49416;SDS011;35290;39.550;8.786;2023-03-14T00:58:32;7.00;;;2.33;;
49416;SDS011;35290;39.550;8.786;2023-03-14T01:00:58;8.15;;;2.80;;
49416;SDS011;35290;39.550;8.786;2023-03-14T01:03:23;9.85;;;3.45;;
49416;SDS011;35290;39.550;8.786;2023-03-14T01:05:49;9.90;;;4.65;;
49416;SDS011;35290;39.550;8.786;2023-03-14T01:08:15;11.48;;;3.75;;
49416;SDS011;35290;39.550;8.786;2023-03-14T01:10:41;8.52;;;3.63;;
49416;SDS011;35290;39.550;8.786;2023-03-14T01:13:07;6.78;;;2.47;;
49416;SDS011;35290;39.550;8.786;2023-03-14T01:15:33;12.75;;;3.13;;
49416;SDS011;35290;39.550;8.786;2023-03-14T01:17:59;8.77;;;2.58;;
49416;SDS011;35290;39.550;8.786;2023-03-14T01:20:25;7.78;;;2.85;;
49416;SDS011;35290;39.550;8.786;2023-03-14T01:22:50;9.23;;;2.47;;
49416;SDS011;35290;39.550;8.786;2023-03-14T01:25:16;10.75;;;2.50;;
49416;SDS011;35290;39.550;8.786;2023-03-14T01:27:42;7.65;;;2.40;;
49416;SDS011;35290;39.550;8.786;2023-03-14T01:30:08;10.27;;;2.90;;
49416;SDS011;35290;39.550;8.786;2023-03-14T01:32:34;7.15;;;2.28;;
49416;SDS011;35290;39.550;8.786;2023-03-14T01:35:00;7.50;;;2.97;;
49416;SDS011;35290;39.550;8.786;2023-03-14T01:37:25;7.35;;;2.55;;
49416;SDS011;35290;39.550;8.786;2023-03-14T01:39:51;9.18;;;2.50;;
49416;SDS011;35290;39.550;8.786;2023-03-14T01:42:16;12.88;;;2.78;;
49416;SDS011;35290;39.550;8.786;2023-03-14T01:45:01;8.98;;;2.40;;
49416;SDS011;35290;39.550;8.786;2023-03-14T01:47:26;9.60;;;2.80;;
49416;SDS011;35290;39.550;8.786;2023-03-14T01:50:04;9.20;;;2.55;;
49416;SDS011;35290;39.550;8.786;2023-03-14T01:52:37;8.63;;;2.58;;
49416;SDS011;35290;39.550;8.786;2023-03-14T01:55:09;11.32;;;2.90;;
49416;SDS011;35290;39.550;8.786;2023-03-14T01:57:47;7.20;;;2.70;;
49416;SDS011;35290;39.550;8.786;2023-03-14T02:00:17;9.15;;;2.60;;
49416;SDS011;35290;39.550;8.786;2023-03-14T02:02:48;9.15;;;2.70;;
49416;SDS011;35290;39.550;8.786;2023-03-14T02:05:25;11.52;;;2.80;;
49416;SDS011;35290;39.550;8.786;2023-03-14T02:07:54;10.65;;;2.60;;
49416;SDS011;35290;39.550;8.786;2023-03-14T02:10:22;8.52;;;2.85;;
49416;SDS011;35290;39.550;8.786;2023-03-14T02:12:50;11.52;;;2.42;;
49416;SDS011;35290;39.550;8.786;2023-03-14T02:15:16;7.03;;;2.30;;
49416;SDS011;35290;39.550;8.786;2023-03-14T02:17:42;8.60;;;2.50;;
49416;SDS011;35290;39.550;8.786;2023-03-14T02:20:11;14.73;;;2.75;;
49416;SDS011;35290;39.550;8.786;2023-03-14T02:22:40;8.90;;;2.60;;
49416;SDS011;35290;39.550;8.786;2023-03-14T02:27:47;11.30;;;3.20;;
49416;SDS011;35290;39.550;8.786;2023-03-14T02:30:18;7.30;;;2.17;;
49416;SDS011;35290;39.550;8.786;2023-03-14T02:32:46;11.05;;;2.63;;
49416;SDS011;35290;39.550;8.786;2023-03-14T02:35:15;7.30;;;3.22;;
49416;SDS011;35290;39.550;8.786;2023-03-14T02:37:46;11.43;;;3.55;;
49416;SDS011;35290;39.550;8.786;2023-03-14T02:40:14;10.35;;;4.10;;
49416;SDS011;35290;39.550;8.786;2023-03-14T02:42:40;18.67;;;5.82;;
49416;SDS011;35290;39.550;8.786;2023-03-14T02:47:34;19.25;;;7.30;;
49416;SDS011;35290;39.550;8.786;2023-03-14T02:50:04;25.67;;;8.45;;
49416;SDS011;35290;39.550;8.786;2023-03-14T02:52:32;25.75;;;9.63;;
49416;SDS011;35290;39.550;8.786;2023-03-14T02:54:57;28.70;;;8.90;;
49416;SDS011;35290;39.550;8.786;2023-03-14T02:57:23;30.25;;;9.23;;
49416;SDS011;35290;39.550;8.786;2023-03-14T02:59:48;30.50;;;10.15;;
49416;SDS011;35290;39.550;8.786;2023-03-14T03:02:14;32.70;;;10.88;;
49416;SDS011;35290;39.550;8.786;2023-03-14T03:04:39;33.20;;;10.43;;
49416;SDS011;35290;39.550;8.786;2023-03-14T03:07:05;35.25;;;10.75;;
49416;SDS011;35290;39.550;8.786;2023-03-14T03:09:30;37.92;;;12.00;;
49416;SDS011;35290;39.550;8.786;2023-03-14T03:11:56;31.00;;;10.98;;
49416;SDS011;35290;39.550;8.786;2023-03-14T03:14:21;46.08;;;11.32;;
49416;SDS011;35290;39.550;8.786;2023-03-14T03:16:47;41.85;;;11.85;;
49416;SDS011;35290;39.550;8.786;2023-03-14T03:19:12;44.25;;;11.05;;
49416;SDS011;35290;39.550;8.786;2023-03-14T03:21:38;39.75;;;12.25;;
49416;SDS011;35290;39.550;8.786;2023-03-14T03:24:04;45.53;;;10.70;;
49416;SDS011;35290;39.550;8.786;2023-03-14T03:26:30;43.22;;;11.63;;
49416;SDS011;35290;39.550;8.786;2023-03-14T03:28:55;34.50;;;11.27;;
49416;SDS011;35290;39.550;8.786;2023-03-14T03:31:21;36.75;;;11.70;;
49416;SDS011;35290;39.550;8.786;2023-03-14T03:33:47;49.10;;;11.50;;
49416;SDS011;35290;39.550;8.786;2023-03-14T03:36:12;39.88;;;11.20;;
49416;SDS011;35290;39.550;8.786;2023-03-14T03:38:38;39.63;;;11.18;;
49416;SDS011;35290;39.550;8.786;2023-03-14T03:41:06;30.15;;;11.43;;
49416;SDS011;35290;39.550;8.786;2023-03-14T03:43:32;31.63;;;10.93;;
49416;SDS011;35290;39.550;8.786;2023-03-14T03:45:58;42.97;;;10.73;;
49416;SDS011;35290;39.550;8.786;2023-03-14T03:48:23;52.25;;;11.77;;
49416;SDS011;35290;39.550;8.786;2023-03-14T03:50:48;51.60;;;12.27;;
49416;SDS011;35290;39.550;8.786;2023-03-14T03:53:14;47.67;;;11.05;;
49416;SDS011;35290;39.550;8.786;2023-03-14T03:55:42;38.75;;;11.18;;
49416;SDS011;35290;39.550;8.786;2023-03-14T03:58:08;44.50;;;10.20;;
49416;SDS011;35290;39.550;8.786;2023-03-14T04:00:33;52.60;;;10.80;;
49416;SDS011;35290;39.550;8.786;2023-03-14T04:02:59;32.50;;;10.25;;
49416;SDS011;35290;39.550;8.786;2023-03-14T04:05:25;47.22;;;9.20;;
49416;SDS011;35290;39.550;8.786;2023-03-14T04:07:51;28.77;;;10.02;;
49416;SDS011;35290;39.550;8.786;2023-03-14T04:10:16;28.25;;;9.05;;
49416;SDS011;35290;39.550;8.786;2023-03-14T04:12:42;31.35;;;9.60;;
49416;SDS011;35290;39.550;8.786;2023-03-14T04:15:08;34.50;;;9.80;;
49416;SDS011;35290;39.550;8.786;2023-03-14T04:17:33;42.40;;;10.35;;
49416;SDS011;35290;39.550;8.786;2023-03-14T04:19:59;28.52;;;10.23;;
49416;SDS011;35290;39.550;8.786;2023-03-14T04:22:24;47.35;;;11.40;;
49416;SDS011;35290;39.550;8.786;2023-03-14T04:24:50;32.35;;;12.02;;
49416;SDS011;35290;39.550;8.786;2023-03-14T04:27:15;34.15;;;12.98;;
49416;SDS011;35290;39.550;8.786;2023-03-14T04:29:41;32.75;;;12.23;;
49416;SDS011;35290;39.550;8.786;2023-03-14T04:32:07;35.03;;;12.73;;
49416;SDS011;35290;39.550;8.786;2023-03-14T04:34:33;37.67;;;13.98;;
49416;SDS011;35290;39.550;8.786;2023-03-14T04:36:58;42.03;;;13.57;;
49416;SDS011;35290;39.550;8.786;2023-03-14T04:39:23;36.40;;;15.25;;
49416;SDS011;35290;39.550;8.786;2023-03-14T04:41:49;35.10;;;13.55;;
49416;SDS011;35290;39.550;8.786;2023-03-14T04:44:14;64.18;;;15.85;;
49416;SDS011;35290;39.550;8.786;2023-03-14T04:46:40;37.05;;;14.75;;
49416;SDS011;35290;39.550;8.786;2023-03-14T04:49:05;34.85;;;14.07;;
49416;SDS011;35290;39.550;8.786;2023-03-14T04:51:31;50.75;;;16.77;;
49416;SDS011;35290;39.550;8.786;2023-03-14T04:53:56;62.92;;;16.83;;
49416;SDS011;35290;39.550;8.786;2023-03-14T04:56:22;56.35;;;16.00;;
49416;SDS011;35290;39.550;8.786;2023-03-14T04:58:47;61.65;;;15.63;;
49416;SDS011;35290;39.550;8.786;2023-03-14T05:01:13;47.33;;;14.23;;
49416;SDS011;35290;39.550;8.786;2023-03-14T05:03:38;49.40;;;15.40;;
49416;SDS011;35290;39.550;8.786;2023-03-14T05:06:04;47.92;;;14.20;;
49416;SDS011;35290;39.550;8.786;2023-03-14T05:08:30;43.67;;;13.73;;
49416;SDS011;35290;39.550;8.786;2023-03-14T05:10:56;79.03;;;13.20;;
49416;SDS011;35290;39.550;8.786;2023-03-14T05:13:22;31.90;;;12.70;;
49416;SDS011;35290;39.550;8.786;2023-03-14T05:15:48;52.55;;;13.60;;
49416;SDS011;35290;39.550;8.786;2023-03-14T05:18:15;56.83;;;12.55;;
49416;SDS011;35290;39.550;8.786;2023-03-14T05:20:41;50.33;;;12.10;;
49416;SDS011;35290;39.550;8.786;2023-03-14T05:23:08;47.40;;;11.70;;
49416;SDS011;35290;39.550;8.786;2023-03-14T05:25:33;35.50;;;12.65;;
49416;SDS011;35290;39.550;8.786;2023-03-14T05:27:59;35.35;;;11.57;;
49416;SDS011;35290;39.550;8.786;2023-03-14T05:30:24;38.35;;;12.02;;
49416;SDS011;35290;39.550;8.786;2023-03-14T05:32:50;41.35;;;11.30;;
49416;SDS011;35290;39.550;8.786;2023-03-14T05:35:15;27.77;;;11.52;;
49416;SDS011;35290;39.550;8.786;2023-03-14T05:37:41;38.22;;;11.50;;
49416;SDS011;35290;39.550;8.786;2023-03-14T05:40:06;31.80;;;10.88;;
49416;SDS011;35290;39.550;8.786;2023-03-14T05:42:33;23.50;;;9.65;;
49416;SDS011;35290;39.550;8.786;2023-03-14T05:44:59;26.52;;;9.52;;
49416;SDS011;35290;39.550;8.786;2023-03-14T05:47:24;19.17;;;9.07;;
49416;SDS011;35290;39.550;8.786;2023-03-14T05:49:50;26.10;;;9.40;;
49416;SDS011;35290;39.550;8.786;2023-03-14T05:52:16;54.10;;;12.05;;
49416;SDS011;35290;39.550;8.786;2023-03-14T05:54:41;35.20;;;9.55;;
49416;SDS011;35290;39.550;8.786;2023-03-14T05:57:07;26.92;;;8.98;;
49416;SDS011;35290;39.550;8.786;2023-03-14T05:59:32;20.27;;;8.93;;
49416;SDS011;35290;39.550;8.786;2023-03-14T06:01:58;18.77;;;8.20;;
49416;SDS011;35290;39.550;8.786;2023-03-14T06:04:23;19.17;;;7.78;;
49416;SDS011;35290;39.550;8.786;2023-03-14T06:06:49;15.13;;;7.28;;
49416;SDS011;35290;39.550;8.786;2023-03-14T06:09:15;15.90;;;7.03;;
49416;SDS011;35290;39.550;8.786;2023-03-14T06:11:40;13.90;;;7.05;;
49416;SDS011;35290;39.550;8.786;2023-03-14T06:14:06;13.73;;;6.70;;
49416;SDS011;35290;39.550;8.786;2023-03-14T06:16:31;10.63;;;6.07;;
49416;SDS011;35290;39.550;8.786;2023-03-14T06:19:02;12.77;;;5.93;;
49416;SDS011;35290;39.550;8.786;2023-03-14T06:21:27;11.65;;;5.88;;
49416;SDS011;35290;39.550;8.786;2023-03-14T06:23:53;15.13;;;7.25;;
49416;SDS011;35290;39.550;8.786;2023-03-14T06:26:18;15.18;;;7.40;;
49416;SDS011;35290;39.550;8.786;2023-03-14T06:28:44;16.17;;;7.15;;
49416;SDS011;35290;39.550;8.786;2023-03-14T06:31:10;14.93;;;6.45;;
49416;SDS011;35290;39.550;8.786;2023-03-14T06:33:35;15.50;;;6.03;;
49416;SDS011;35290;39.550;8.786;2023-03-14T06:36:01;15.27;;;5.50;;
49416;SDS011;35290;39.550;8.786;2023-03-14T06:38:26;14.93;;;5.78;;
49416;SDS011;35290;39.550;8.786;2023-03-14T06:40:51;16.23;;;6.55;;
49416;SDS011;35290;39.550;8.786;2023-03-14T06:43:17;17.67;;;5.70;;
49416;SDS011;35290;39.550;8.786;2023-03-14T06:45:42;18.17;;;8.32;;
49416;SDS011;35290;39.550;8.786;2023-03-14T06:48:08;32.15;;;12.13;;
49416;SDS011;35290;39.550;8.786;2023-03-14T06:50:33;16.90;;;7.70;;
49416;SDS011;35290;39.550;8.786;2023-03-14T06:52:59;17.48;;;7.93;;
49416;SDS011;35290;39.550;8.786;2023-03-14T06:55:24;18.85;;;8.48;;
49416;SDS011;35290;39.550;8.786;2023-03-14T06:57:51;19.30;;;7.60;;
49416;SDS011;35290;39.550;8.786;2023-03-14T07:00:16;18.77;;;7.13;;
49416;SDS011;35290;39.550;8.786;2023-03-14T07:02:42;20.33;;;10.82;;
49416;SDS011;35290;39.550;8.786;2023-03-14T07:05:08;21.58;;;10.25;;
49416;SDS011;35290;39.550;8.786;2023-03-14T07:07:35;28.35;;;9.88;;
49416;SDS011;35290;39.550;8.786;2023-03-14T07:10:01;18.88;;;9.20;;
49416;SDS011;35290;39.550;8.786;2023-03-14T07:12:26;20.65;;;9.18;;
49416;SDS011;35290;39.550;8.786;2023-03-14T07:14:51;15.00;;;8.55;;
49416;SDS011;35290;39.550;8.786;2023-03-14T07:17:17;13.98;;;8.27;;
49416;SDS011;35290;39.550;8.786;2023-03-14T07:19:42;19.85;;;8.20;;
49416;SDS011;35290;39.550;8.786;2023-03-14T07:22:08;15.20;;;7.22;;
49416;SDS011;35290;39.550;8.786;2023-03-14T07:24:33;17.02;;;6.68;;
49416;SDS011;35290;39.550;8.786;2023-03-14T07:26:59;14.27;;;6.32;;
49416;SDS011;35290;39.550;8.786;2023-03-14T07:29:24;13.65;;;6.05;;
49416;SDS011;35290;39.550;8.786;2023-03-14T07:31:50;14.32;;;5.40;;
49416;SDS011;35290;39.550;8.786;2023-03-14T07:34:15;13.82;;;4.35;;
49416;SDS011;35290;39.550;8.786;2023-03-14T07:36:41;15.13;;;4.85;;
49416;SDS011;35290;39.550;8.786;2023-03-14T07:39:06;12.43;;;4.47;;
49416;SDS011;35290;39.550;8.786;2023-03-14T07:41:32;14.60;;;5.10;;
49416;SDS011;35290;39.550;8.786;2023-03-14T07:43:58;11.63;;;4.60;;
49416;SDS011;35290;39.550;8.786;2023-03-14T07:46:24;13.70;;;4.32;;
49416;SDS011;35290;39.550;8.786;2023-03-14T07:48:49;11.80;;;4.97;;
49416;SDS011;35290;39.550;8.786;2023-03-14T07:51:15;13.55;;;4.80;;
49416;SDS011;35290;39.550;8.786;2023-03-14T07:53:40;9.93;;;4.78;;
49416;SDS011;35290;39.550;8.786;2023-03-14T07:56:08;12.10;;;4.57;;
49416;SDS011;35290;39.550;8.786;2023-03-14T07:58:34;11.55;;;5.95;;
49416;SDS011;35290;39.550;8.786;2023-03-14T08:00:59;14.88;;;6.70;;
49416;SDS011;35290;39.550;8.786;2023-03-14T08:03:26;13.40;;;5.82;;
49416;SDS011;35290;39.550;8.786;2023-03-14T08:05:52;15.45;;;5.80;;
49416;SDS011;35290;39.550;8.786;2023-03-14T08:08:18;14.27;;;6.35;;
49416;SDS011;35290;39.550;8.786;2023-03-14T08:10:44;19.27;;;8.00;;
49416;SDS011;35290;39.550;8.786;2023-03-14T08:13:10;20.08;;;8.63;;
49416;SDS011;35290;39.550;8.786;2023-03-14T08:15:35;17.08;;;7.38;;
49416;SDS011;35290;39.550;8.786;2023-03-14T08:18:02;19.75;;;7.28;;
49416;SDS011;35290;39.550;8.786;2023-03-14T08:20:28;18.02;;;6.70;;
49416;SDS011;35290;39.550;8.786;2023-03-14T08:22:58;14.68;;;5.85;;
49416;SDS011;35290;39.550;8.786;2023-03-14T08:25:25;20.05;;;5.53;;
49416;SDS011;35290;39.550;8.786;2023-03-14T08:27:51;19.90;;;5.38;;
49416;SDS011;35290;39.550;8.786;2023-03-14T08:30:18;20.88;;;5.25;;
49416;SDS011;35290;39.550;8.786;2023-03-14T08:32:44;26.52;;;6.57;;
49416;SDS011;35290;39.550;8.786;2023-03-14T08:35:09;24.75;;;5.85;;
49416;SDS011;35290;39.550;8.786;2023-03-14T08:37:35;16.77;;;4.75;;
49416;SDS011;35290;39.550;8.786;2023-03-14T08:40:25;16.50;;;4.90;;
49416;SDS011;35290;39.550;8.786;2023-03-14T08:42:50;22.50;;;5.40;;
49416;SDS011;35290;39.550;8.786;2023-03-14T08:45:16;19.33;;;5.53;;
49416;SDS011;35290;39.550;8.786;2023-03-14T08:47:42;18.58;;;4.93;;
49416;SDS011;35290;39.550;8.786;2023-03-14T08:50:09;17.42;;;3.53;;
49416;SDS011;35290;39.550;8.786;2023-03-14T08:52:35;16.10;;;4.30;;
49416;SDS011;35290;39.550;8.786;2023-03-14T08:55:02;25.75;;;3.90;;
49416;SDS011;35290;39.550;8.786;2023-03-14T08:57:28;23.38;;;4.25;;
49416;SDS011;35290;39.550;8.786;2023-03-14T08:59:54;17.92;;;3.72;;
49416;SDS011;35290;39.550;8.786;2023-03-14T09:02:20;18.95;;;3.67;;
49416;SDS011;35290;39.550;8.786;2023-03-14T09:04:46;15.20;;;3.40;;
49416;SDS011;35290;39.550;8.786;2023-03-14T09:07:12;20.98;;;4.03;;
49416;SDS011;35290;39.550;8.786;2023-03-14T09:09:37;20.10;;;3.78;;
49416;SDS011;35290;39.550;8.786;2023-03-14T09:12:05;19.15;;;3.10;;
49416;SDS011;35290;39.550;8.786;2023-03-14T09:14:31;15.40;;;2.80;;
49416;SDS011;35290;39.550;8.786;2023-03-14T09:16:57;16.20;;;2.30;;
49416;SDS011;35290;39.550;8.786;2023-03-14T09:19:22;9.48;;;2.28;;
49416;SDS011;35290;39.550;8.786;2023-03-14T09:21:51;11.23;;;2.10;;
49416;SDS011;35290;39.550;8.786;2023-03-14T09:24:26;6.28;;;1.27;;
49416;SDS011;35290;39.550;8.786;2023-03-14T09:26:52;13.20;;;1.98;;
49416;SDS011;35290;39.550;8.786;2023-03-14T09:29:25;9.73;;;1.65;;
49416;SDS011;35290;39.550;8.786;2023-03-14T09:31:51;9.38;;;1.35;;
49416;SDS011;35290;39.550;8.786;2023-03-14T09:34:22;10.70;;;2.00;;
49416;SDS011;35290;39.550;8.786;2023-03-14T09:37:06;15.40;;;2.58;;
49416;SDS011;35290;39.550;8.786;2023-03-14T09:39:35;13.70;;;2.90;;
49416;SDS011;35290;39.550;8.786;2023-03-14T09:42:02;9.80;;;2.70;;
49416;SDS011;35290;39.550;8.786;2023-03-14T09:44:31;14.60;;;2.00;;
49416;SDS011;35290;39.550;8.786;2023-03-14T09:47:16;17.33;;;3.22;;
49416;SDS011;35290;39.550;8.786;2023-03-14T09:49:45;16.00;;;2.00;;
49416;SDS011;35290;39.550;8.786;2023-03-14T09:57:18;9.13;;;1.70;;
49416;SDS011;35290;39.550;8.786;2023-03-14T09:59:45;15.63;;;2.30;;
49416;SDS011;35290;39.550;8.786;2023-03-14T10:02:22;8.25;;;1.50;;
49416;SDS011;35290;39.550;8.786;2023-03-14T10:04:50;6.25;;;1.40;;
49416;SDS011;35290;39.550;8.786;2023-03-14T10:07:18;9.07;;;1.80;;
49416;SDS011;35290;39.550;8.786;2023-03-14T10:09:47;13.68;;;1.65;;
49416;SDS011;35290;39.550;8.786;2023-03-14T10:12:14;11.13;;;1.77;;
49416;SDS011;35290;39.550;8.786;2023-03-14T10:14:50;13.90;;;1.88;;
49416;SDS011;35290;39.550;8.786;2023-03-14T10:17:19;10.55;;;1.60;;
49416;SDS011;35290;39.550;8.786;2023-03-14T10:19:51;8.25;;;1.63;;
49416;SDS011;35290;39.550;8.786;2023-03-14T10:22:19;13.00;;;2.05;;
49416;SDS011;35290;39.550;8.786;2023-03-14T10:24:46;15.73;;;2.10;;
49416;SDS011;35290;39.550;8.786;2023-03-14T10:27:18;7.65;;;1.20;;
49416;SDS011;35290;39.550;8.786;2023-03-14T10:29:52;8.18;;;1.02;;
49416;SDS011;35290;39.550;8.786;2023-03-14T10:32:20;9.32;;;1.40;;
49416;SDS011;35290;39.550;8.786;2023-03-14T10:34:45;14.77;;;1.35;;
49416;SDS011;35290;39.550;8.786;2023-03-14T10:37:33;7.88;;;1.08;;
49416;SDS011;35290;39.550;8.786;2023-03-14T10:39:59;9.70;;;1.42;;
49416;SDS011;35290;39.550;8.786;2023-03-14T10:42:31;6.95;;;1.38;;
49416;SDS011;35290;39.550;8.786;2023-03-14T10:45:15;6.78;;;1.35;;
49416;SDS011;35290;39.550;8.786;2023-03-14T10:47:51;7.13;;;1.70;;
49416;SDS011;35290;39.550;8.786;2023-03-14T10:50:27;7.40;;;1.27;;
49416;SDS011;35290;39.550;8.786;2023-03-14T10:52:55;8.85;;;1.30;;
49416;SDS011;35290;39.550;8.786;2023-03-14T10:55:23;11.38;;;1.50;;
49416;SDS011;35290;39.550;8.786;2023-03-14T10:57:50;10.27;;;1.60;;
49416;SDS011;35290;39.550;8.786;2023-03-14T11:00:17;6.13;;;1.60;;
49416;SDS011;35290;39.550;8.786;2023-03-14T11:05:35;11.32;;;1.95;;
49416;SDS011;35290;39.550;8.786;2023-03-14T11:08:08;14.30;;;2.22;;
49416;SDS011;35290;39.550;8.786;2023-03-14T11:10:40;10.13;;;2.45;;
49416;SDS011;35290;39.550;8.786;2023-03-14T11:15:37;12.48;;;2.50;;
49416;SDS011;35290;39.550;8.786;2023-03-14T11:20:53;12.82;;;1.75;;
49416;SDS011;35290;39.550;8.786;2023-03-14T11:24:05;4.20;;;1.20;;
49416;SDS011;35290;39.550;8.786;2023-03-14T11:31:49;12.68;;;2.13;;
49416;SDS011;35290;39.550;8.786;2023-03-14T11:36:46;14.20;;;2.13;;
49416;SDS011;35290;39.550;8.786;2023-03-14T11:39:17;11.40;;;2.17;;
49416;SDS011;35290;39.550;8.786;2023-03-14T11:41:49;6.47;;;1.45;;
49416;SDS011;35290;39.550;8.786;2023-03-14T11:49:42;8.57;;;2.30;;
49416;SDS011;35290;39.550;8.786;2023-03-14T11:52:23;6.88;;;1.17;;
49416;SDS011;35290;39.550;8.786;2023-03-14T11:57:39;4.20;;;1.20;;
49416;SDS011;35290;39.550;8.786;2023-03-14T12:10:51;16.00;;;2.63;;
49416;SDS011;35290;39.550;8.786;2023-03-14T12:13:39;9.05;;;1.85;;
49416;SDS011;35290;39.550;8.786;2023-03-14T12:16:06;10.75;;;1.77;;
49416;SDS011;35290;39.550;8.786;2023-03-14T12:18:43;4.70;;;1.10;;
49416;SDS011;35290;39.550;8.786;2023-03-14T12:21:11;9.70;;;1.65;;
49416;SDS011;35290;39.550;8.786;2023-03-14T12:23:44;14.35;;;1.65;;
49416;SDS011;35290;39.550;8.786;2023-03-14T12:26:21;12.00;;;2.08;;
49416;SDS011;35290;39.550;8.786;2023-03-14T12:34:42;6.40;;;1.60;;
49416;SDS011;35290;39.550;8.786;2023-03-14T12:42:02;13.63;;;2.85;;
49416;SDS011;35290;39.550;8.786;2023-03-14T12:44:49;13.20;;;2.78;;
49416;SDS011;35290;39.550;8.786;2023-03-14T12:49:51;13.90;;;2.50;;
49416;SDS011;35290;39.550;8.786;2023-03-14T12:52:21;18.02;;;1.98;;
49416;SDS011;35290;39.550;8.786;2023-03-14T12:57:26;16.30;;;2.97;;
49416;SDS011;35290;39.550;8.786;2023-03-14T12:59:59;15.13;;;2.85;;
49416;SDS011;35290;39.550;8.786;2023-03-14T13:02:29;18.10;;;3.05;;
49416;SDS011;35290;39.550;8.786;2023-03-14T13:10:26;18.52;;;3.22;;
49416;SDS011;35290;39.550;8.786;2023-03-14T13:15:48;17.60;;;2.35;;
49416;SDS011;35290;39.550;8.786;2023-03-14T13:19:02;15.90;;;3.15;;
49416;SDS011;35290;39.550;8.786;2023-03-14T13:21:16;16.95;;;3.08;;
49416;SDS011;35290;39.550;8.786;2023-03-14T13:26:36;19.27;;;3.80;;
49416;SDS011;35290;39.550;8.786;2023-03-14T13:29:14;23.38;;;3.38;;
49416;SDS011;35290;39.550;8.786;2023-03-14T13:31:45;23.25;;;3.78;;
49416;SDS011;35290;39.550;8.786;2023-03-14T13:34:12;20.83;;;3.42;;
49416;SDS011;35290;39.550;8.786;2023-03-14T13:36:37;22.92;;;3.90;;
49416;SDS011;35290;39.550;8.786;2023-03-14T13:39:04;27.50;;;4.50;;
49416;SDS011;35290;39.550;8.786;2023-03-14T13:41:37;14.00;;;2.83;;
49416;SDS011;35290;39.550;8.786;2023-03-14T13:44:03;21.83;;;4.03;;
49416;SDS011;35290;39.550;8.786;2023-03-14T13:46:33;25.00;;;4.45;;
49416;SDS011;35290;39.550;8.786;2023-03-14T13:49:01;19.13;;;3.72;;
49416;SDS011;35290;39.550;8.786;2023-03-14T13:51:28;14.73;;;3.30;;
49416;SDS011;35290;39.550;8.786;2023-03-14T13:53:56;24.25;;;4.05;;
49416;SDS011;35290;39.550;8.786;2023-03-14T13:56:30;25.13;;;3.55;;
49416;SDS011;35290;39.550;8.786;2023-03-14T13:58:57;25.63;;;4.60;;
49416;SDS011;35290;39.550;8.786;2023-03-14T14:03:59;19.83;;;2.97;;
49416;SDS011;35290;39.550;8.786;2023-03-14T14:06:32;19.38;;;3.33;;
49416;SDS011;35290;39.550;8.786;2023-03-14T14:09:22;16.90;;;3.28;;
49416;SDS011;35290;39.550;8.786;2023-03-14T14:14:18;19.42;;;3.92;;
49416;SDS011;35290;39.550;8.786;2023-03-14T14:17:03;17.63;;;3.70;;
49416;SDS011;35290;39.550;8.786;2023-03-14T14:19:31;24.35;;;4.32;;
49416;SDS011;35290;39.550;8.786;2023-03-14T14:21:58;21.63;;;3.13;;
49416;SDS011;35290;39.550;8.786;2023-03-14T14:24:24;22.40;;;3.80;;
49416;SDS011;35290;39.550;8.786;2023-03-14T14:27:08;25.25;;;4.15;;
49416;SDS011;35290;39.550;8.786;2023-03-14T14:29:34;24.05;;;4.20;;
49416;SDS011;35290;39.550;8.786;2023-03-14T14:32:18;27.60;;;3.72;;
49416;SDS011;35290;39.550;8.786;2023-03-14T14:34:44;26.85;;;4.45;;
49416;SDS011;35290;39.550;8.786;2023-03-14T14:37:20;27.15;;;4.40;;
49416;SDS011;35290;39.550;8.786;2023-03-14T14:39:52;26.05;;;5.05;;
49416;SDS011;35290;39.550;8.786;2023-03-14T14:42:20;26.13;;;5.75;;
49416;SDS011;35290;39.550;8.786;2023-03-14T14:44:50;30.35;;;5.18;;
49416;SDS011;35290;39.550;8.786;2023-03-14T14:47:18;22.25;;;3.88;;
49416;SDS011;35290;39.550;8.786;2023-03-14T14:49:46;15.43;;;2.78;;
49416;SDS011;35290;39.550;8.786;2023-03-14T14:52:15;18.25;;;3.28;;
49416;SDS011;35290;39.550;8.786;2023-03-14T14:57:20;15.63;;;2.80;;
49416;SDS011;35290;39.550;8.786;2023-03-14T14:59:48;15.25;;;3.38;;
49416;SDS011;35290;39.550;8.786;2023-03-14T15:04:49;30.42;;;4.55;;
49416;SDS011;35290;39.550;8.786;2023-03-14T15:07:14;25.08;;;3.85;;
49416;SDS011;35290;39.550;8.786;2023-03-14T15:09:42;26.98;;;4.25;;
49416;SDS011;35290;39.550;8.786;2023-03-14T15:12:07;25.40;;;4.60;;
49416;SDS011;35290;39.550;8.786;2023-03-14T15:14:33;20.27;;;3.97;;
49416;SDS011;35290;39.550;8.786;2023-03-14T15:16:58;23.98;;;3.92;;
49416;SDS011;35290;39.550;8.786;2023-03-14T15:19:24;21.60;;;3.20;;
49416;SDS011;35290;39.550;8.786;2023-03-14T15:21:51;20.73;;;3.60;;
49416;SDS011;35290;39.550;8.786;2023-03-14T15:24:17;17.80;;;2.95;;
49416;SDS011;35290;39.550;8.786;2023-03-14T15:26:43;17.70;;;3.00;;
49416;SDS011;35290;39.550;8.786;2023-03-14T15:29:10;25.25;;;3.17;;
49416;SDS011;35290;39.550;8.786;2023-03-14T15:31:37;23.85;;;3.40;;
49416;SDS011;35290;39.550;8.786;2023-03-14T15:34:08;26.23;;;3.58;;
49416;SDS011;35290;39.550;8.786;2023-03-14T15:36:34;27.52;;;5.00;;
49416;SDS011;35290;39.550;8.786;2023-03-14T15:39:00;18.23;;;2.80;;
49416;SDS011;35290;39.550;8.786;2023-03-14T15:41:27;15.23;;;2.63;;
49416;SDS011;35290;39.550;8.786;2023-03-14T15:43:53;15.85;;;3.10;;
49416;SDS011;35290;39.550;8.786;2023-03-14T15:46:19;23.60;;;4.13;;
49416;SDS011;35290;39.550;8.786;2023-03-14T15:48:45;18.20;;;3.30;;
49416;SDS011;35290;39.550;8.786;2023-03-14T15:51:10;23.30;;;3.63;;
49416;SDS011;35290;39.550;8.786;2023-03-14T15:53:36;20.45;;;3.63;;
49416;SDS011;35290;39.550;8.786;2023-03-14T15:56:03;21.65;;;3.60;;
49416;SDS011;35290;39.550;8.786;2023-03-14T15:58:29;27.05;;;4.53;;
49416;SDS011;35290;39.550;8.786;2023-03-14T16:04:26;14.82;;;3.65;;